Time;durP1;ratioP1;P1;durP2;ratioP2;P2;SDS_P1;SDS_P2;PMS_P1;PMS_P2;Temp;Humidity;BMP_temperature;BMP_pressure;BME280_temperature;BME280_humidity;BME280_pressure;Samples;Min_cycle;Max_cycle;Signal;HPM_P1;HPM_P2
2022/03/01 00:02:23;;;;;;;23.43;12.83;;;2.00;99.90;;;;;;2618863;54;20654;-78
2022/03/01 00:04:49;;;;;;;21.43;12.60;;;2.00;99.90;;;;;;2618664;54;20380;-78
2022/03/01 00:07:14;;;;;;;16.57;11.63;;;1.90;99.90;;;;;;2618747;47;20387;-78
2022/03/01 00:09:40;;;;;;;16.33;12.00;;;1.90;99.90;;;;;;2619304;39;20860;-77
2022/03/01 00:12:07;;;;;;;18.53;11.73;;;1.80;99.90;;;;;;2618751;54;20181;-79
2022/03/01 00:14:35;;;;;;;16.67;11.67;;;1.70;99.90;;;;;;2618351;46;20146;-77
2022/03/01 00:17:00;;;;;;;18.10;11.40;;;1.90;99.90;;;;;;2618637;47;20396;-78
2022/03/01 00:19:29;;;;;;;21.73;12.13;;;1.80;99.90;;;;;;2618369;47;20476;-78
2022/03/01 00:21:56;;;;;;;19.03;11.20;;;1.80;99.90;;;;;;2618626;46;20411;-77
2022/03/01 00:24:22;;;;;;;16.53;10.87;;;1.70;99.90;;;;;;2618849;47;20943;-78
2022/03/01 00:26:49;;;;;;;17.70;11.80;;;1.50;99.90;;;;;;2619295;54;20503;-78
2022/03/01 00:29:15;;;;;;;23.97;12.33;;;1.50;99.90;;;;;;2618798;39;20542;-78
2022/03/01 00:31:41;;;;;;;18.43;12.03;;;1.60;99.90;;;;;;2618628;39;20765;-77
2022/03/01 00:34:07;;;;;;;17.90;12.27;;;1.60;99.90;;;;;;2618331;54;20376;-79
2022/03/01 00:36:36;;;;;;;16.30;11.53;;;1.70;99.90;;;;;;2619154;39;20747;-78
2022/03/01 00:39:04;;;;;;;19.40;11.13;;;1.80;99.90;;;;;;2618248;47;20899;-77
2022/03/01 00:41:30;;;;;;;19.13;11.93;;;1.80;99.90;;;;;;2618285;47;20475;-78
2022/03/01 00:43:56;;;;;;;16.70;11.50;;;1.80;99.90;;;;;;2618347;46;20471;-77
2022/03/01 00:46:26;;;;;;;13.87;11.67;;;1.90;99.90;;;;;;2618322;54;20853;-78
2022/03/01 00:48:55;;;;;;;22.93;12.87;;;1.70;99.90;;;;;;2618210;54;20380;-78
2022/03/01 00:51:21;;;;;;;19.47;11.80;;;1.70;99.90;;;;;;2618123;54;20422;-77
2022/03/01 00:53:47;;;;;;;16.90;11.87;;;1.50;99.90;;;;;;2618252;47;20376;-78
2022/03/01 00:56:36;;;;;;;15.30;11.87;;;1.50;99.90;;;;;;2618431;47;20520;-78
2022/03/01 00:59:03;;;;;;;18.60;11.63;;;1.40;99.90;;;;;;2617672;47;20924;-78
2022/03/01 01:01:29;;;;;;;19.93;12.80;;;1.50;99.90;;;;;;2617744;47;20510;-78
2022/03/01 01:03:56;;;;;;;17.83;11.97;;;1.30;99.90;;;;;;2617495;54;20465;-78
2022/03/01 01:06:22;;;;;;;18.03;12.60;;;1.40;99.90;;;;;;2617537;47;20382;-78
2022/03/01 01:08:47;;;;;;;19.97;12.70;;;1.40;99.90;;;;;;2618082;31;20849;-79
2022/03/01 01:11:13;;;;;;;18.50;11.80;;;1.50;99.90;;;;;;2617236;47;20379;-78
2022/03/01 01:13:39;;;;;;;16.20;11.97;;;1.60;99.90;;;;;;2617347;47;20227;-78
2022/03/01 01:16:05;;;;;;;18.13;11.73;;;1.40;99.90;;;;;;2617315;54;20143;-77
2022/03/01 01:18:32;;;;;;;17.40;10.97;;;1.20;99.90;;;;;;2617050;51;20682;-78
2022/03/01 01:20:58;;;;;;;18.47;12.40;;;1.20;99.90;;;;;;2617264;47;20399;-79
2022/03/01 01:23:24;;;;;;;16.33;12.60;;;1.30;99.90;;;;;;2617359;54;20381;-78
2022/03/01 01:25:50;;;;;;;16.50;11.00;;;1.30;99.90;;;;;;2617406;47;20145;-78
2022/03/01 01:28:16;;;;;;;17.27;10.83;;;1.20;99.90;;;;;;2617215;47;20367;-78
2022/03/01 01:30:42;;;;;;;16.40;11.17;;;1.30;99.90;;;;;;2617228;47;20234;-78
2022/03/01 01:33:07;;;;;;;17.90;11.10;;;1.40;99.90;;;;;;2617633;47;20364;-78
2022/03/01 01:35:35;;;;;;;16.10;11.40;;;1.40;99.90;;;;;;2617631;47;20521;-78
2022/03/01 01:38:01;;;;;;;21.60;12.93;;;1.40;99.90;;;;;;2618204;47;20691;-79
2022/03/01 01:40:32;;;;;;;16.10;11.00;;;1.40;99.90;;;;;;2618084;47;20448;-78
2022/03/01 01:42:59;;;;;;;15.87;11.93;;;1.30;99.90;;;;;;2619189;54;20419;-77
2022/03/01 01:45:26;;;;;;;17.10;11.03;;;1.20;99.90;;;;;;2618953;47;20404;-79
2022/03/01 01:47:54;;;;;;;19.17;11.63;;;1.20;99.90;;;;;;2619078;54;20383;-78
2022/03/01 01:50:21;;;;;;;18.20;11.37;;;1.20;99.90;;;;;;2619129;54;20367;-78
2022/03/01 01:52:49;;;;;;;15.63;10.40;;;1.20;99.90;;;;;;2619698;54;20451;-78
2022/03/01 01:55:17;;;;;;;15.23;10.40;;;1.30;99.90;;;;;;2619137;54;20364;-79
2022/03/01 01:57:43;;;;;;;14.60;10.20;;;1.40;99.90;;;;;;2618916;54;20376;-78
2022/03/01 02:00:35;;;;;;;13.80;11.00;;;1.50;99.90;;;;;;2619372;54;20375;-79
2022/03/01 02:03:01;;;;;;;18.73;9.30;;;1.60;99.90;;;;;;2618033;46;20418;-79
2022/03/01 02:05:28;;;;;;;15.57;10.67;;;1.70;99.90;;;;;;2618161;54;20413;-79
2022/03/01 02:07:54;;;;;;;12.40;9.40;;;1.80;99.90;;;;;;2617919;47;20391;-77
2022/03/01 02:10:21;;;;;;;15.10;9.30;;;2.00;99.90;;;;;;2618083;46;20404;-78
2022/03/01 02:12:49;;;;;;;13.17;7.33;;;1.80;99.90;;;;;;2617505;47;20392;-78
2022/03/01 02:15:17;;;;;;;13.40;9.03;;;2.20;99.90;;;;;;2618669;47;20380;-78
2022/03/01 02:17:44;;;;;;;13.90;10.10;;;2.30;99.20;;;;;;2618173;54;20384;-78
2022/03/01 02:20:18;;;;;;;11.20;7.83;;;2.40;97.00;;;;;;2618227;47;20425;-78
2022/03/01 02:22:45;;;;;;;11.50;7.63;;;2.70;93.10;;;;;;2618146;46;20975;-78
2022/03/01 02:25:12;;;;;;;10.53;8.80;;;2.80;89.40;;;;;;2619033;54;20422;-79
2022/03/01 02:27:39;;;;;;;9.47;7.30;;;3.30;71.40;;;;;;2617969;47;20392;-78
2022/03/01 02:30:09;;;;;;;10.87;7.23;;;3.60;65.90;;;;;;2618418;54;20383;-78
2022/03/01 02:32:36;;;;;;;9.83;7.70;;;3.80;56.00;;;;;;2618801;47;20380;-78
2022/03/01 02:35:05;;;;;;;9.03;7.23;;;4.00;46.90;;;;;;2618080;47;20388;-78
2022/03/01 02:37:32;;;;;;;8.67;7.83;;;4.10;40.70;;;;;;2618596;31;20869;-78
2022/03/01 02:40:25;;;;;;;13.53;8.43;;;4.30;33.80;;;;;;2618476;47;20384;-78
2022/03/01 02:42:50;;;;;;;14.77;7.50;;;4.40;32.60;;;;;;2617878;46;20448;-78
2022/03/01 02:45:18;;;;;;;11.53;8.40;;;;;;;;;;2617873;47;20395;-78
2022/03/01 02:47:44;;;;;;;7.90;6.53;;;;;;;;;;2615934;46;20447;-78
2022/03/01 02:50:13;;;;;;;10.27;8.17;;;4.60;26.80;;;;;;2617655;46;20977;-77
2022/03/01 02:52:41;;;;;;;12.17;7.57;;;4.80;27.00;;;;;;2618013;39;20844;-78
2022/03/01 02:55:10;;;;;;;9.50;7.30;;;4.60;25.50;;;;;;2617954;47;20385;-77
2022/03/01 02:57:36;;;;;;;14.30;8.17;;;4.70;24.10;;;;;;2617899;47;20380;-78
2022/03/01 03:00:06;;;;;;;8.97;7.10;;;4.70;26.00;;;;;;2617496;47;20372;-78
2022/03/01 03:02:32;;;;;;;11.93;8.20;;;4.70;26.30;;;;;;2617808;47;20304;-78
2022/03/01 03:04:58;;;;;;;15.60;9.30;;;4.70;30.00;;;;;;2617980;47;20376;-77
2022/03/01 03:07:24;;;;;;;10.97;9.47;;;4.50;35.40;;;;;;2618033;54;20395;-78
2022/03/01 03:09:49;;;;;;;12.23;8.37;;;4.50;39.10;;;;;;2617844;47;20145;-78
2022/03/01 03:12:15;;;;;;;9.93;8.07;;;4.50;41.40;;;;;;2617630;47;20174;-78
2022/03/01 03:14:43;;;;;;;15.30;9.80;;;4.30;48.70;;;;;;2617992;54;20382;-77
2022/03/01 03:17:09;;;;;;;10.60;8.60;;;;;;;;;;2618525;39;20780;-79
2022/03/01 03:19:36;;;;;;;11.00;8.40;;;;;;;;;;2616917;54;21518;-79
2022/03/01 03:22:03;;;;;;;10.43;6.97;;;3.90;65.60;;;;;;2618470;39;20890;-78
2022/03/01 03:24:30;;;;;;;8.50;7.40;;;;;;;;;;2618240;47;20928;-78
2022/03/01 03:26:58;;;;;;;18.10;8.97;;;3.10;99.90;;;;;;2618438;47;20431;-79
2022/03/01 03:29:24;;;;;;;11.00;7.60;;;3.50;78.10;;;;;;2618898;54;20383;-78
2022/03/01 03:31:56;;;;;;;12.63;8.37;;;3.30;81.90;;;;;;2618775;46;20419;-77
2022/03/01 03:34:23;;;;;;;12.53;9.50;;;3.10;90.00;;;;;;2618634;47;20139;-78
2022/03/01 03:36:50;;;;;;;10.80;8.37;;;;;;;;;;2618177;54;20379;-78
2022/03/01 03:39:19;;;;;;;8.37;7.40;;;2.90;95.70;;;;;;2618451;39;20801;-80
2022/03/01 03:41:45;;;;;;;12.47;8.37;;;2.90;96.00;;;;;;2618540;54;20403;-79
2022/03/01 03:44:10;;;;;;;13.83;8.90;;;3.00;96.70;;;;;;2618504;47;20443;-78
2022/03/01 03:47:00;;;;;;;12.93;9.37;;;3.00;97.30;;;;;;2618272;47;20371;-77
2022/03/01 03:49:26;;;;;;;9.03;7.40;;;;;;;;;;2617844;47;21004;-77
2022/03/01 03:51:52;;;;;;;14.73;9.47;;;3.10;99.90;;;;;;2617193;47;21095;-78
2022/03/01 03:54:18;;;;;;;14.20;7.60;;;3.10;97.50;;;;;;2617984;54;20379;-77
2022/03/01 03:57:12;;;;;;;7.77;6.90;;;2.90;98.90;;;;;;2617540;39;21164;-78
2022/03/01 03:59:39;;;;;;;13.47;9.40;;;2.70;99.90;;;;;;2617368;47;20408;-78
2022/03/01 04:02:06;;;;;;;10.43;7.27;;;2.60;99.90;;;;;;2617126;54;20973;-77
2022/03/01 04:04:33;;;;;;;14.63;9.90;;;2.60;99.90;;;;;;2617386;47;20389;-77
2022/03/01 04:06:59;;;;;;;12.70;9.60;;;2.60;99.90;;;;;;2617731;47;20426;-78
2022/03/01 04:09:26;;;;;;;11.50;8.90;;;2.40;99.90;;;;;;2617859;47;20384;-77
2022/03/01 04:12:18;;;;;;;12.37;8.80;;;2.30;99.90;;;;;;2617716;47;20439;-77
2022/03/01 04:14:45;;;;;;;11.73;8.67;;;2.20;99.90;;;;;;2617690;47;20371;-77
2022/03/01 04:17:11;;;;;;;12.40;9.10;;;2.30;99.90;;;;;;2617787;46;20411;-78
2022/03/01 04:19:36;;;;;;;11.57;8.90;;;2.30;99.90;;;;;;2617707;46;20399;-78
2022/03/01 04:22:02;;;;;;;23.10;9.70;;;2.30;99.90;;;;;;2617768;47;20380;-77
2022/03/01 04:24:28;;;;;;;9.40;7.90;;;2.50;99.90;;;;;;2617659;54;20355;-77
2022/03/01 04:26:54;;;;;;;11.70;8.20;;;2.50;99.90;;;;;;2617608;46;20374;-78
2022/03/01 04:29:21;;;;;;;13.67;9.40;;;2.50;99.90;;;;;;2617397;47;20143;-78
2022/03/01 04:32:11;;;;;;;14.13;9.13;;;2.40;99.90;;;;;;2617616;47;20671;-78
2022/03/01 04:34:38;;;;;;;12.73;8.27;;;2.40;99.90;;;;;;2617689;47;20391;-79
2022/03/01 04:37:06;;;;;;;12.23;8.30;;;2.20;99.90;;;;;;2617291;47;20398;-77
2022/03/01 04:39:32;;;;;;;10.33;8.13;;;2.00;99.90;;;;;;2617138;47;20415;-77
2022/03/01 04:41:59;;;;;;;16.33;9.67;;;2.30;99.90;;;;;;2619122;47;20399;-78
2022/03/01 04:44:26;;;;;;;15.40;10.60;;;2.30;99.90;;;;;;2617647;47;20454;-78
2022/03/01 04:46:52;;;;;;;12.40;8.63;;;;;;;;;;2616905;51;20363;-79
2022/03/01 04:49:18;;;;;;;14.00;7.50;;;;;;;;;;2616761;47;20395;-80
2022/03/01 04:51:44;;;;;;;13.17;7.90;;;2.20;99.90;;;;;;2617448;47;20370;-78
2022/03/01 04:54:12;;;;;;;15.40;10.40;;;2.10;99.90;;;;;;2617420;47;20427;-78
2022/03/01 04:56:38;;;;;;;13.97;9.30;;;;;;;;;;2617300;47;20147;-80
2022/03/01 04:59:04;;;;;;;12.70;9.07;;;2.00;99.90;;;;;;2617893;39;20808;-78
2022/03/01 05:01:30;;;;;;;10.17;7.17;;;;;;;;;;2617325;47;20438;-78
2022/03/01 05:03:56;;;;;;;12.93;8.20;;;;;;;;;;2617388;39;20556;-79
2022/03/01 05:06:22;;;;;;;12.33;7.60;;;;;;;;;;2617667;39;20777;-79
2022/03/01 05:08:48;;;;;;;14.80;8.60;;;;;;;;;;2612974;47;20415;-79
2022/03/01 05:11:15;;;;;;;15.67;7.60;;;;;;;;;;2614924;54;20515;-79
2022/03/01 05:14:05;;;;;;;11.30;8.00;;;;;;;;;;2616097;39;20799;-80
2022/03/01 05:16:31;;;;;;;15.07;9.93;;;1.50;99.90;;;;;;2615975;47;20486;-80
2022/03/01 05:18:59;;;;;;;12.40;7.70;;;;;;;;;;2617690;46;20418;-79
2022/03/01 05:21:24;;;;;;;11.30;8.20;;;1.70;99.90;;;;;;2617301;47;20399;-78
2022/03/01 05:23:51;;;;;;;15.00;10.10;;;1.40;99.90;;;;;;2618253;47;20406;-79
2022/03/01 05:26:18;;;;;;;13.37;8.03;;;;;;;;;;2617885;54;20439;-78
2022/03/01 05:28:45;;;;;;;15.23;9.20;;;1.40;99.90;;;;;;2616543;54;20518;-78
2022/03/01 05:31:12;;;;;;;11.20;7.80;;;;;;;;;;2615808;47;20406;-78
2022/03/01 05:33:38;;;;;;;14.00;8.60;;;;;;;;;;2617926;39;20872;-79
2022/03/01 05:36:06;;;;;;;16.53;9.47;;;2.00;99.90;;;;;;2618223;47;20375;-79
2022/03/01 05:38:32;;;;;;;11.30;7.90;;;;;;;;;;2617769;47;20406;-80
2022/03/01 05:40:58;;;;;;;15.80;9.60;;;2.20;99.90;;;;;;2618485;46;20854;-79
2022/03/01 05:43:24;;;;;;;18.50;11.00;;;;;;;;;;2617716;47;20410;-80
2022/03/01 05:45:50;;;;;;;19.20;15.40;;;;;;;;;;2617617;54;20375;-79
2022/03/01 05:48:43;;;;;;;13.47;8.87;;;2.50;99.90;;;;;;2617862;54;20462;-78
2022/03/01 05:51:09;;;;;;;11.27;8.00;;;2.60;99.90;;;;;;2618759;47;20430;-78
2022/03/01 05:53:35;;;;;;;11.07;8.27;;;2.70;97.30;;;;;;2618219;47;20396;-78
2022/03/01 05:56:01;;;;;;;11.50;8.37;;;;;;;;;;2618407;46;20408;-78
2022/03/01 05:58:27;;;;;;;13.23;11.10;;;2.80;96.90;;;;;;2618230;54;20442;-78
2022/03/01 06:00:53;;;;;;;15.13;10.17;;;2.90;91.90;;;;;;2618359;54;20414;-78
2022/03/01 06:03:20;;;;;;;15.30;7.90;;;;;;;;;;2615542;51;20426;-79
2022/03/01 06:05:46;;;;;;;12.60;8.00;;;3.20;51.60;;;;;;2615842;46;21575;-78
2022/03/01 06:08:11;;;;;;;16.03;9.97;;;3.30;49.70;;;;;;2615269;47;20519;-78
2022/03/01 06:10:37;;;;;;;12.47;8.93;;;3.30;50.30;;;;;;2618359;47;20177;-78
2022/03/01 06:13:03;;;;;;;15.73;9.40;;;3.40;48.10;;;;;;2618180;47;20380;-78
2022/03/01 06:15:30;;;;;;;12.33;9.47;;;;;;;;;;2618123;46;20143;-78
2022/03/01 06:17:56;;;;;;;13.37;10.33;;;3.60;35.60;;;;;;2617989;47;20166;-78
2022/03/01 06:20:22;;;;;;;16.20;10.63;;;3.60;36.00;;;;;;2618218;54;20499;-77
2022/03/01 06:22:48;;;;;;;20.43;9.87;;;3.90;33.20;;;;;;2617991;47;20600;-78
2022/03/01 06:25:15;;;;;;;15.43;8.73;;;3.80;28.90;;;;;;2618562;47;20396;-78
2022/03/01 06:27:42;;;;;;;15.93;10.73;;;;;;;;;;2618122;47;20418;-79
2022/03/01 06:30:10;;;;;;;13.63;9.20;;;4.10;25.90;;;;;;2617490;47;20425;-79
2022/03/01 06:32:36;;;;;;;16.23;9.00;;;4.10;26.30;;;;;;2619346;54;20389;-78
2022/03/01 06:35:05;;;;;;;13.43;7.93;;;4.10;25.20;;;;;;2619457;47;20467;-80
2022/03/01 06:37:31;;;;;;;9.30;8.20;;;4.10;22.80;;;;;;2637070;36;20985;-78
2022/03/01 06:39:57;;;;;;;13.90;9.20;;;4.20;26.50;;;;;;2619083;47;20380;-78
2022/03/01 06:42:23;;;;;;;15.50;9.30;;;;;;;;;;2617941;47;20515;-79
2022/03/01 06:44:49;;;;;;;13.90;9.77;;;;;;;;;;2617181;47;20411;-80
2022/03/01 06:47:42;;;;;;;12.03;7.57;;;4.50;20.50;;;;;;2618689;47;20423;-78
2022/03/01 06:50:10;;;;;;;16.53;8.50;;;;;;;;;;2618055;46;20968;-79
2022/03/01 06:52:37;;;;;;;15.20;9.87;;;;;;;;;;2617076;39;20817;-80
2022/03/01 06:55:04;;;;;;;21.60;9.50;;;4.60;27.00;;;;;;2615379;47;20995;-80
2022/03/01 06:57:32;;;;;;;19.93;13.83;;;;;;;;;;2615430;54;20534;-80
2022/03/01 06:59:59;;;;;;;16.43;8.20;;;4.70;17.00;;;;;;2618445;46;20393;-79
2022/03/01 07:02:29;;;;;;;14.60;8.60;;;4.60;16.90;;;;;;2618186;54;20407;-79
2022/03/01 07:04:55;;;;;;;17.00;10.67;;;;;;;;;;2614740;46;20430;-79
2022/03/01 07:07:48;;;;;;;14.03;8.93;;;4.80;15.50;;;;;;2617308;47;20839;-79
2022/03/01 07:10:15;;;;;;;14.47;9.10;;;;;;;;;;2617601;47;20398;-79
2022/03/01 07:12:42;;;;;;;13.30;9.80;;;4.90;18.60;;;;;;2615549;47;20424;-78
2022/03/01 07:15:08;;;;;;;13.63;9.20;;;4.90;14.00;;;;;;2618414;39;20461;-79
2022/03/01 07:17:35;;;;;;;16.20;10.57;;;;;;;;;;2618092;39;20899;-79
2022/03/01 07:20:01;;;;;;;11.90;9.27;;;5.00;12.50;;;;;;2617505;47;20418;-79
2022/03/01 07:22:26;;;;;;;11.93;8.67;;;5.00;13.10;;;;;;2617998;47;20937;-78
2022/03/01 07:24:52;;;;;;;12.13;8.87;;;5.10;12.00;;;;;;2618073;54;20197;-78
2022/03/01 07:27:19;;;;;;;11.43;8.10;;;;;;;;;;2617696;47;20671;-80
2022/03/01 07:29:47;;;;;;;18.43;10.63;;;5.10;9.80;;;;;;2618079;47;20162;-78
2022/03/01 07:32:13;;;;;;;18.90;9.40;;;5.20;9.90;;;;;;2617967;47;20946;-78
2022/03/01 07:35:07;;;;;;;9.63;7.47;;;5.40;10.80;;;;;;2617262;54;20391;-78
2022/03/01 07:40:00;;;;;;;12.20;9.63;;;5.40;6.80;;;;;;2654669;36;20470;-78
2022/03/01 07:42:26;;;;;;;13.07;10.30;;;5.40;6.80;;;;;;2619093;54;20931;-79
2022/03/01 07:44:51;;;;;;;14.30;10.57;;;5.50;6.90;;;;;;2618800;47;20945;-80
2022/03/01 07:47:19;;;;;;;13.37;9.20;;;5.50;6.40;;;;;;2618942;54;20384;-78
2022/03/01 07:49:47;;;;;;;14.77;9.57;;;;;;;;;;2618913;46;20143;-80
2022/03/01 07:52:14;;;;;;;13.93;8.43;;;5.50;14.60;;;;;;2618289;47;20392;-80
2022/03/01 07:54:41;;;;;;;18.60;10.17;;;;;;;;;;2618734;51;20438;-79
2022/03/01 07:57:30;;;;;;;11.80;7.47;;;;;;;;;;2616890;47;20446;-80
2022/03/01 07:59:57;;;;;;;10.00;8.60;;;;;;;;;;2615279;54;20383;-81
2022/03/01 08:02:25;;;;;;;13.60;9.80;;;;;;;;;;2616386;47;20403;-80
2022/03/01 08:04:52;;;;;;;11.37;8.80;;;;;;;;;;2614076;47;20469;-80
2022/03/01 08:07:18;;;;;;;13.03;9.00;;;;;;;;;;2612708;47;20427;-82
2022/03/01 08:09:44;;;;;;;13.07;9.60;;;7.80;1.00;;;;;;2614926;54;20510;-79
2022/03/01 08:12:11;;;;;;;12.70;9.87;;;8.00;1.00;;;;;;2615111;54;20525;-79
2022/03/01 08:14:38;;;;;;;12.73;9.77;;;7.90;1.00;;;;;;2615478;47;20430;-78
2022/03/01 08:17:03;;;;;;;14.07;9.80;;;8.10;1.00;;;;;;2617752;47;20883;-80
2022/03/01 08:19:30;;;;;;;11.30;9.17;;;8.50;1.00;;;;;;2635847;36;20504;-78
2022/03/01 08:21:56;;;;;;;12.97;9.43;;;8.60;1.00;;;;;;2617810;47;20416;-79
2022/03/01 08:24:23;;;;;;;16.67;11.60;;;;;;;;;;2617823;54;20636;-82
2022/03/01 08:26:49;;;;;;;15.17;9.97;;;8.30;1.00;;;;;;2617023;47;20694;-78
2022/03/01 08:29:18;;;;;;;13.53;9.70;;;8.20;1.00;;;;;;2617955;47;20988;-79
2022/03/01 08:31:44;;;;;;;17.10;10.20;;;8.10;1.00;;;;;;2617959;46;20384;-78
2022/03/01 08:34:09;;;;;;;14.60;11.53;;;8.10;1.00;;;;;;2618142;47;20422;-77
2022/03/01 08:36:59;;;;;;;16.40;10.70;;;8.30;1.00;;;;;;2618169;54;20146;-78
2022/03/01 08:39:25;;;;;;;17.97;11.30;;;8.60;1.00;;;;;;2618105;47;20180;-79
2022/03/01 08:41:54;;;;;;;12.57;9.60;;;8.60;1.00;;;;;;2617988;47;20444;-80
2022/03/01 08:44:20;;;;;;;11.40;9.50;;;8.80;1.00;;;;;;2617815;47;20466;-78
2022/03/01 08:46:46;;;;;;;14.73;11.30;;;8.70;1.00;;;;;;2617935;54;20392;-78
2022/03/01 08:49:12;;;;;;;13.20;10.10;;;8.90;1.00;;;;;;2617420;54;20444;-78
2022/03/01 08:51:38;;;;;;;18.50;11.97;;;8.90;1.00;;;;;;2617633;47;20424;-79
2022/03/01 08:54:31;;;;;;;13.37;10.40;;;9.20;1.00;;;;;;2618012;47;20473;-79
2022/03/01 08:56:57;;;;;;;13.27;10.17;;;9.60;1.00;;;;;;2617497;47;20288;-79
2022/03/01 08:59:24;;;;;;;12.10;9.70;;;9.90;1.00;;;;;;2619480;47;20513;-76
2022/03/01 09:01:51;;;;;;;14.30;11.20;;;9.80;1.00;;;;;;2620129;47;20467;-78
2022/03/01 09:04:19;;;;;;;11.87;10.67;;;9.80;1.00;;;;;;2621416;47;20977;-79
2022/03/01 09:06:46;;;;;;;12.83;9.77;;;9.90;1.00;;;;;;2621415;54;20403;-77
2022/03/01 09:09:13;;;;;;;12.80;11.43;;;9.90;1.00;;;;;;2621857;54;20947;-78
2022/03/01 09:11:40;;;;;;;13.93;10.40;;;9.40;1.00;;;;;;2621505;47;20500;-78
2022/03/01 09:14:06;;;;;;;12.57;10.87;;;9.40;1.00;;;;;;2620207;54;20428;-78
2022/03/01 09:16:32;;;;;;;8.63;7.73;;;10.00;1.00;;;;;;2620402;47;20426;-80
2022/03/01 09:19:25;;;;;;;14.30;9.37;;;9.80;1.00;;;;;;2621584;54;20512;-78
2022/03/01 09:21:51;;;;;;;10.50;9.40;;;9.80;1.00;;;;;;2622018;39;20870;-79
2022/03/01 09:24:17;;;;;;;11.57;10.37;;;;;;;;;;2620551;47;20420;-78
2022/03/01 09:26:44;;;;;;;10.97;9.33;;;10.30;1.00;;;;;;2614886;54;20705;-77
2022/03/01 09:29:10;;;;;;;10.73;8.23;;;10.30;1.00;;;;;;2617572;47;20428;-77
2022/03/01 09:31:36;;;;;;;11.07;9.03;;;10.40;1.00;;;;;;2617808;47;20926;-78
2022/03/01 09:34:02;;;;;;;10.60;9.10;;;10.30;1.00;;;;;;2617637;47;20390;-79
2022/03/01 09:36:59;;;;;;;10.53;8.40;;;9.90;1.00;;;;;;2617554;54;20448;-77
2022/03/01 09:39:25;;;;;;;15.40;9.40;;;;;;;;;;2617131;47;20981;-81
2022/03/01 09:41:53;;;;;;;14.43;9.60;;;;;;;;;;2612929;54;20423;-79
2022/03/01 09:44:47;;;;;;;10.63;9.10;;;9.50;1.00;;;;;;2612298;54;20419;-80
2022/03/01 09:47:13;;;;;;;11.80;9.30;;;9.30;1.00;;;;;;2614762;39;20841;-79
2022/03/01 09:49:39;;;;;;;14.80;9.90;;;9.40;1.00;;;;;;2613623;54;20506;-79
2022/03/01 09:52:05;;;;;;;10.67;9.10;;;9.60;1.00;;;;;;2614382;54;20410;-79
2022/03/01 09:54:30;;;;;;;19.33;9.67;;;9.70;1.00;;;;;;2615018;54;21170;-79
2022/03/01 09:56:57;;;;;;;10.83;9.10;;;9.50;1.00;;;;;;2615459;54;20502;-77
2022/03/01 09:59:25;;;;;;;12.13;8.37;;;9.50;1.00;;;;;;2614724;51;20458;-78
2022/03/01 10:01:53;;;;;;;13.27;9.30;;;9.40;1.00;;;;;;2616573;39;20798;-80
2022/03/01 10:04:21;;;;;;;11.00;9.90;;;9.40;1.00;;;;;;2615490;47;20423;-79
2022/03/01 10:06:49;;;;;;;12.83;10.30;;;9.90;1.00;;;;;;2614578;54;20430;-78
2022/03/01 10:09:23;;;;;;;12.60;9.80;;;10.20;1.00;;;;;;2615023;47;20480;-78
2022/03/01 10:12:23;;;;;;;13.20;8.73;;;10.80;1.00;;;;;;2615562;47;20456;-79
2022/03/01 10:14:59;;;;;;;16.20;10.63;;;10.70;1.00;;;;;;2616078;54;20408;-79
2022/03/01 10:17:36;;;;;;;14.60;10.70;;;11.10;1.00;;;;;;2616044;47;21012;-78
2022/03/01 10:20:08;;;;;;;11.63;9.70;;;11.60;1.00;;;;;;2616011;39;20882;-79
2022/03/01 10:22:36;;;;;;;12.27;9.77;;;11.40;1.00;;;;;;2615657;47;21027;-78
2022/03/01 10:25:08;;;;;;;10.97;9.67;;;11.50;1.00;;;;;;2614837;51;20415;-78
2022/03/01 10:27:34;;;;;;;12.67;11.37;;;11.90;1.00;;;;;;2615874;47;20543;-79
2022/03/01 10:30:02;;;;;;;12.37;10.30;;;12.50;1.00;;;;;;2616131;47;20416;-78
2022/03/01 10:32:28;;;;;;;12.13;10.60;;;12.80;1.00;;;;;;2616851;47;20419;-78
2022/03/01 10:35:05;;;;;;;15.70;10.13;;;12.60;1.00;;;;;;2616004;47;20466;-79
2022/03/01 10:37:34;;;;;;;10.70;9.60;;;12.00;1.00;;;;;;2616647;54;20155;-78
2022/03/01 10:40:12;;;;;;;12.40;10.53;;;11.80;1.00;;;;;;2616669;47;20430;-78
2022/03/01 10:42:39;;;;;;;11.33;10.10;;;12.20;1.00;;;;;;2616595;39;20954;-78
2022/03/01 10:45:09;;;;;;;11.87;10.67;;;12.30;1.00;;;;;;2616450;54;21133;-79
2022/03/01 10:47:52;;;;;;;11.37;10.27;;;12.10;1.00;;;;;;2615915;47;20418;-80
2022/03/01 10:50:19;;;;;;;10.13;8.93;;;11.70;1.00;;;;;;2616705;54;20394;-80
2022/03/01 10:52:46;;;;;;;15.17;10.27;;;11.40;1.00;;;;;;2617226;47;20452;-79
2022/03/01 10:55:26;;;;;;;11.00;9.90;;;11.80;1.00;;;;;;2617476;47;20410;-78
2022/03/01 10:58:03;;;;;;;12.67;10.17;;;12.00;1.00;;;;;;2616923;54;20394;-79
2022/03/01 11:00:30;;;;;;;13.57;10.57;;;11.80;1.00;;;;;;2617541;47;20427;-80
2022/03/01 11:02:56;;;;;;;11.37;10.27;;;11.80;1.00;;;;;;2616946;39;20822;-78
2022/03/01 11:05:54;;;;;;;11.60;10.33;;;11.80;1.00;;;;;;2617095;47;20407;-77
2022/03/01 11:08:34;;;;;;;12.17;9.80;;;11.80;1.00;;;;;;2615560;46;20498;-77
2022/03/01 11:11:26;;;;;;;11.07;9.77;;;11.90;1.00;;;;;;2615006;54;20396;-78
2022/03/01 11:13:53;;;;;;;16.97;11.20;;;11.40;1.00;;;;;;2614968;46;20462;-78
2022/03/01 11:16:23;;;;;;;16.20;11.03;;;11.30;1.00;;;;;;2615448;54;20442;-80
2022/03/01 11:19:18;;;;;;;11.50;9.50;;;11.10;1.00;;;;;;2615100;47;20434;-79
2022/03/01 11:21:47;;;;;;;13.43;9.77;;;10.90;1.00;;;;;;2616292;39;20882;-79
2022/03/01 11:24:15;;;;;;;11.27;10.10;;;;;;;;;;2615855;54;20416;-79
2022/03/01 11:27:09;;;;;;;10.20;8.53;;;11.50;1.00;;;;;;2614060;47;20470;-79
2022/03/01 11:29:40;;;;;;;10.93;8.70;;;11.60;1.00;;;;;;2614767;54;20401;-78
2022/03/01 11:32:12;;;;;;;11.63;9.33;;;;;;;;;;2615524;46;20420;-78
2022/03/01 11:34:39;;;;;;;12.53;10.30;;;10.70;1.00;;;;;;2613981;47;20476;-80
2022/03/01 11:37:12;;;;;;;13.07;9.53;;;;;;;;;;2613902;47;20517;-79
2022/03/01 11:39:37;;;;;;;11.53;9.60;;;10.90;1.00;;;;;;2612154;54;20537;-79
2022/03/01 11:42:33;;;;;;;11.43;9.43;;;11.20;1.00;;;;;;2614435;47;20423;-79
2022/03/01 11:45:29;;;;;;;16.17;9.60;;;;;;;;;;2613329;39;20826;-79
2022/03/01 11:48:25;;;;;;;13.40;8.63;;;11.70;1.00;;;;;;2612785;47;20502;-78
2022/03/01 11:51:05;;;;;;;13.93;10.93;;;12.10;1.30;;;;;;2612913;54;20396;-78
2022/03/01 11:53:58;;;;;;;14.00;11.73;;;;;;;;;;2613726;54;20937;-79
2022/03/01 11:56:24;;;;;;;16.07;9.60;;;12.10;1.00;;;;;;2613212;54;20985;-79
2022/03/01 11:58:51;;;;;;;12.63;8.90;;;;;;;;;;2613908;54;21020;-78
2022/03/01 12:01:45;;;;;;;11.93;10.13;;;12.10;1.00;;;;;;2612684;54;20462;-78
2022/03/01 12:04:13;;;;;;;12.20;9.57;;;12.20;1.00;;;;;;2611788;46;20466;-78
2022/03/01 12:06:40;;;;;;;13.20;11.83;;;;;;;;;;2613222;47;20454;-80
2022/03/01 12:09:11;;;;;;;13.63;9.70;;;12.10;1.00;;;;;;2613105;39;21034;-80
2022/03/01 12:11:42;;;;;;;10.70;9.60;;;12.20;1.00;;;;;;2613911;47;20420;-80
2022/03/01 12:14:09;;;;;;;12.10;10.30;;;;;;;;;;2615360;46;20435;-80
2022/03/01 12:16:38;;;;;;;10.53;9.40;;;12.10;1.00;;;;;;2613065;47;20467;-79
2022/03/01 12:19:09;;;;;;;15.10;10.50;;;;;;;;;;2613965;47;20435;-79
2022/03/01 12:21:37;;;;;;;12.13;8.27;;;11.90;1.00;;;;;;2613128;54;20415;-79
2022/03/01 12:24:05;;;;;;;10.70;9.40;;;11.80;1.00;;;;;;2614205;54;21135;-80
2022/03/01 12:26:32;;;;;;;14.50;10.03;;;;;;;;;;2615320;54;20391;-79
2022/03/01 12:29:00;;;;;;;12.30;8.67;;;;;;;;;;2613929;54;20418;-79
2022/03/01 12:31:28;;;;;;;13.83;10.67;;;13.10;1.00;;;;;;2611512;46;20419;-79
2022/03/01 12:34:06;;;;;;;13.57;9.77;;;13.80;1.00;;;;;;2614084;47;20420;-79
2022/03/01 12:36:37;;;;;;;10.97;9.73;;;;;;;;;;2661175;36;20608;-80
2022/03/01 12:39:07;;;;;;;11.33;9.43;;;13.00;1.00;;;;;;2610979;39;20814;-80
2022/03/01 12:44:05;;;;;;;10.20;8.70;;;12.20;1.00;;;;;;2715932;36;20444;-88
2022/03/01 12:46:32;;;;;;;11.47;8.90;;;12.20;1.00;;;;;;2623725;54;20419;-89
2022/03/01 12:48:59;;;;;;;9.10;8.13;;;12.00;1.00;;;;;;2624850;46;20387;-88
2022/03/01 12:51:25;;;;;;;11.53;8.43;;;12.00;1.00;;;;;;2623682;47;20372;-88
2022/03/01 12:53:57;;;;;;;12.93;9.30;;;11.90;1.00;;;;;;2624124;47;20411;-88
2022/03/01 12:56:26;;;;;;;14.30;10.37;;;11.90;1.00;;;;;;2623553;54;20406;-89
2022/03/01 12:58:55;;;;;;;20.33;10.10;;;11.90;1.00;;;;;;2620965;47;20887;-90
2022/03/01 13:01:21;;;;;;;10.93;9.73;;;11.80;1.00;;;;;;2620997;47;20379;-87
2022/03/01 13:03:50;;;;;;;12.07;9.73;;;11.60;1.00;;;;;;2620602;47;20400;-87
2022/03/01 13:06:19;;;;;;;11.10;9.70;;;12.10;1.00;;;;;;2620036;47;20404;-87
2022/03/01 13:08:53;;;;;;;11.63;9.80;;;12.30;1.00;;;;;;2618707;54;20508;-89
2022/03/01 13:11:20;;;;;;;11.50;9.07;;;12.30;1.00;;;;;;2622370;47;20388;-89
2022/03/01 13:14:04;;;;;;;10.53;9.33;;;12.40;1.00;;;;;;2624047;47;20951;-88
2022/03/01 13:16:35;;;;;;;17.30;9.13;;;12.40;1.00;;;;;;2623664;46;20417;-87
2022/03/01 13:19:04;;;;;;;14.53;10.20;;;12.30;1.00;;;;;;2623823;39;20743;-87
2022/03/01 13:21:36;;;;;;;15.10;9.43;;;12.00;1.00;;;;;;2624118;39;20749;-87